Independence — WSID — position and weather

sailwx.info

Track history (hours):
 
Tides and Currents Weather Stations Pressure Air Temp Water Temp Dewpoint Dewpoint Depression Visibility Wind Speed Wind Dir Waves Ship Positions

Independence

Owner: SEA-Vista Newbuild I LLC, Fort Lauderdale, FL. More information available from US FCC via Universal Licensing System and Coast Guard Vessel Documentation Center.

Last reported at 2017-Sep-18 11:28 UTC. Time now 2017-Sep-21 01:35 UTC.
Position N 24°31' W 081°07'.

Length 186 m; draft 9.1 m.

Type: Tanker. MMSI: 338188000.

Date/timePositionNaut miles runAvg speedWind from/ knotsBaromVisibWave heightAir tempDewpointWater temp
2017-Sep-18 11:28N 24°31' W 081°07'612.5
2017-Sep-18 10:59N 24°33' W 081°01'612.8
2017-Sep-18 10:30N 24°35' W 080°54'612.8
2017-Sep-18 10:00N 24°37' W 080°48'612.5
2017-Sep-18 09:30N 24°40' W 080°41'612.9
2017-Sep-18 09:00N 24°44' W 080°36'714.3
2017-Sep-18 08:30N 24°48' W 080°30'2814.6
2017-Sep-18 06:34N 25°09' W 080°08'214.6
2017-Sep-18 06:24N 25°11' W 080°07'614.1
2017-Sep-18 06:00N 25°16' W 080°04'713.4
2017-Sep-18 05:30N 25°22' W 080°01'613.0
2017-Sep-18 05:01N 25°28' W 079°60'713.0
2017-Sep-18 04:30N 25°35' W 079°59'713.6
2017-Sep-18 04:00N 25°42' W 079°59'713.6
2017-Sep-18 03:30N 25°48' W 079°57'713.3
2017-Sep-18 03:01N 25°55' W 079°59'713.2
2017-Sep-18 02:31N 26°01' W 080°01'611.4
2017-Sep-18 02:00N 26°06' W 080°05'2 3.7
2017-Sep-18 01:31N 26°06' W 080°07'0 0.0
2017-Sep-17 13:08N 26°06' W 080°07'0 0.0
2017-Sep-17 12:59N 26°06' W 080°07'0 0.0
2017-Sep-17 12:29N 26°06' W 080°07'0 0.0
2017-Sep-17 11:59N 26°06' W 080°07'0 0.0
2017-Sep-17 11:29N 26°06' W 080°07'0 0.0
2017-Sep-17 10:59N 26°06' W 080°07'0 0.0
2017-Sep-17 10:29N 26°06' W 080°07'0 0.0
2017-Sep-17 09:59N 26°06' W 080°07'0 0.0
2017-Sep-17 09:29N 26°06' W 080°07'0 0.0
2017-Sep-17 08:56N 26°06' W 080°07'0 0.0
2017-Sep-17 08:29N 26°06' W 080°07'0 0.0
2017-Sep-17 07:59N 26°06' W 080°07'0 0.0
2017-Sep-17 07:29N 26°06' W 080°07'0 0.0
2017-Sep-17 06:59N 26°06' W 080°07'0 0.0
2017-Sep-17 06:29N 26°06' W 080°07'0 0.0
2017-Sep-17 05:59N 26°06' W 080°07'0 0.0
2017-Sep-17 05:29N 26°06' W 080°07'0 0.0
2017-Sep-17 04:59N 26°06' W 080°07'0 0.0
2017-Sep-17 04:29N 26°06' W 080°07'0 0.0
2017-Sep-17 03:59N 26°06' W 080°07'0 0.0
2017-Sep-17 03:29N 26°06' W 080°07'0 0.0
2017-Sep-17 02:59N 26°06' W 080°07'0 0.0
2017-Sep-17 02:29N 26°06' W 080°07'0 0.0
2017-Sep-17 01:59N 26°06' W 080°07'0 0.0
2017-Sep-17 01:26N 26°06' W 080°07'0 0.0
2017-Sep-17 00:59N 26°06' W 080°07'0 0.0
2017-Sep-17 00:29N 26°06' W 080°07'0 0.0
2017-Sep-16 23:59N 26°06' W 080°07'0 0.0
2017-Sep-16 23:29N 26°06' W 080°07'0 0.0
2017-Sep-16 22:59N 26°06' W 080°07'0 0.0
2017-Sep-16 22:29N 26°06' W 080°07'0 0.0
2017-Sep-16 21:59N 26°06' W 080°07'0 0.0
2017-Sep-16 21:29N 26°06' W 080°07'0 0.0
2017-Sep-16 20:59N 26°06' W 080°07'0 0.0
2017-Sep-16 20:29N 26°06' W 080°07'0 0.0
2017-Sep-16 19:59N 26°06' W 080°07'0 0.0
2017-Sep-16 19:29N 26°06' W 080°07'0 0.0
2017-Sep-16 18:59N 26°06' W 080°07'0 0.0
2017-Sep-16 18:29N 26°06' W 080°07'0 0.0
2017-Sep-16 17:59N 26°06' W 080°07'0 0.0
2017-Sep-16 17:29N 26°06' W 080°07'0 0.0
2017-Sep-16 16:59N 26°06' W 080°07'0 0.0
2017-Sep-16 16:29N 26°06' W 080°07'0 0.0
2017-Sep-16 15:59N 26°06' W 080°07'0 0.0
2017-Sep-16 15:29N 26°06' W 080°07'0 0.0
2017-Sep-16 14:59N 26°06' W 080°07'0 0.1
2017-Sep-16 14:31N 26°06' W 080°07'0 0.8
2017-Sep-16 14:00N 26°06' W 080°07'4 8.3
2017-Sep-16 13:31N 26°05' W 080°02'2 4.6
2017-Sep-16 13:00N 26°03' W 080°01'2 4.7
2017-Sep-16 12:30N 26°01' W 079°59'1 2.3
2017-Sep-16 12:01N 26°00' W 079°58'1 1.8
2017-Sep-16 11:30N 26°01' W 079°58'1 1.8
2017-Sep-16 11:00N 26°02' W 079°58'1 1.6
2017-Sep-16 10:30N 26°03' W 079°58'0 0.3
2017-Sep-16 10:00N 26°03' W 079°58'2 4.3
2017-Sep-16 09:30N 26°01' W 079°58'1 2.8
2017-Sep-16 09:00N 26°00' W 079°59'1 1.3
2017-Sep-16 08:30N 26°01' W 079°59'1 1.7
2017-Sep-16 08:00N 26°02' W 079°59'1 1.6
2017-Sep-16 07:30N 26°03' W 079°59'1 1.8
2017-Sep-16 07:00N 26°03' W 079°59'1 2.1
2017-Sep-16 06:31N 26°04' W 079°59'1 2.1
2017-Sep-16 06:01N 26°05' W 079°59'1 2.1
2017-Sep-16 05:30N 26°07' W 079°59'1 2.0
2017-Sep-16 05:01N 26°08' W 079°59'1 2.1
2017-Sep-16 04:31N 26°09' W 079°59'1 1.9
2017-Sep-16 04:01N 26°10' W 079°59'1 3.0
2017-Sep-16 03:31N 26°10' W 079°58'4 7.5
2017-Sep-16 03:00N 26°13' W 079°55'713.3
2017-Sep-16 02:30N 26°19' W 079°53'713.4
2017-Sep-16 02:00N 26°26' W 079°52'713.1
2017-Sep-16 01:30N 26°33' W 079°52'1612.7
2017-Sep-16 00:14N 26°49' W 079°51'312.6
2017-Sep-16 00:00N 26°52' W 079°51'612.4
2017-Sep-15 23:30N 26°58' W 079°53'612.0
2017-Sep-15 23:00N 27°04' W 079°54'  
2017-Sep-13 07:51N 33°60' W 076°30'513.3
2017-Sep-13 07:30N 34°03' W 076°25'713.5
2017-Sep-13 06:58N 34°08' W 076°19'913.3
2017-Sep-13 06:19N 34°14' W 076°12'413.2
2017-Sep-13 06:00N 34°17' W 076°08'713.3
2017-Sep-13 05:30N 34°21' W 076°02'712.7
2017-Sep-13 04:59N 34°27' W 075°57'8911.9
2017-Sep-12 21:30N 35°41' W 074°58'713.6
2017-Sep-12 20:58N 35°48' W 074°56'613.7
2017-Sep-12 20:30N 35°54' W 074°55'713.8
2017-Sep-12 20:00N 36°01' W 074°53'3614.0
2017-Sep-12 17:26N 36°36' W 074°44'613.8
2017-Sep-12 17:00N 36°42' W 074°42'713.8
2017-Sep-12 16:31N 36°49' W 074°40'714.1
2017-Sep-12 16:00N 36°55' W 074°38'913.9
2017-Sep-12 15:22N 37°04' W 074°35'514.3
2017-Sep-12 15:00N 37°09' W 074°34'714.0
2017-Sep-12 14:30N 37°16' W 074°32'714.0
2017-Sep-12 14:00N 37°23' W 074°30'713.8
2017-Sep-12 13:30N 37°29' W 074°28'714.0
2017-Sep-12 13:01N 37°36' W 074°26'714.3
2017-Sep-12 12:31N 37°43' W 074°24'4714.4
2017-Sep-12 09:16N 38°29' W 074°09'414.4
2017-Sep-12 09:01N 38°32' W 074°08'714.4
2017-Sep-12 08:31N 38°39' W 074°07'714.5
2017-Sep-12 08:01N 38°46' W 074°06'714.5
2017-Sep-12 07:30N 38°53' W 074°04'714.5
2017-Sep-12 07:01N 39°00' W 074°02'714.5
2017-Sep-12 06:30N 39°08' W 073°60'714.5
2017-Sep-12 06:01N 39°15' W 073°58'714.3
2017-Sep-12 05:31N 39°22' W 073°56'714.3
2017-Sep-12 05:01N 39°29' W 073°54'714.0
2017-Sep-12 04:30N 39°36' W 073°54'713.9
2017-Sep-12 04:00N 39°43' W 073°52'714.0
2017-Sep-12 03:30N 39°49' W 073°52'714.0
2017-Sep-12 03:01N 39°56' W 073°51'714.0
2017-Sep-12 02:31N 40°03' W 073°51'714.0
2017-Sep-12 02:00N 40°10' W 073°50'713.9
2017-Sep-12 01:29N 40°18' W 073°49'613.4
2017-Sep-12 01:00N 40°24' W 073°49'710.6
2017-Sep-12 00:23N 40°29' W 073°55'410.2
2017-Sep-12 00:00N 40°31' W 073°59'611.4
2017-Sep-11 23:30N 40°36' W 074°03'3 5.9
2017-Sep-11 23:00N 40°39' W 074°03'0 0.2
2017-Sep-11 22:30N 40°39' W 074°03'0 0.1
2017-Sep-11 22:00N 40°39' W 074°03'0 0.1
2017-Sep-11 21:30N 40°39' W 074°03'0 0.0
2017-Sep-11 21:00N 40°39' W 074°03'0 0.1
2017-Sep-11 20:30N 40°39' W 074°03'0 0.2
2017-Sep-11 20:00N 40°39' W 074°03'0 0.0
2017-Sep-11 19:30N 40°39' W 074°03'0 0.3
2017-Sep-11 19:00N 40°39' W 074°03'0 0.1
2017-Sep-11 18:30N 40°39' W 074°03'0 0.1
2017-Sep-11 18:00N 40°39' W 074°03'2 4.6
2017-Sep-11 17:30N 40°39' W 074°06'3 6.9
2017-Sep-11 17:00N 40°39' W 074°10'2 4.7
2017-Sep-11 16:30N 40°37' W 074°12'2 3.6
2017-Sep-11 16:00N 40°35' W 074°13'0 0.1
2017-Sep-11 15:30N 40°35' W 074°13'  
2017-Sep-09 10:27N 40°35' W 074°13'0 0.1
2017-Sep-09 10:00N 40°35' W 074°13'2 3.8
2017-Sep-09 09:30N 40°33' W 074°14'3 4.7
2017-Sep-09 08:58N 40°31' W 074°15'2 4.1
2017-Sep-09 08:30N 40°30' W 074°14'2 4.7
2017-Sep-09 08:00N 40°30' W 074°11'510.9
2017-Sep-09 07:30N 40°29' W 074°04'5 9.2
2017-Sep-09 07:00N 40°28' W 073°58'5 9.1
2017-Sep-09 06:30N 40°25' W 073°54'5 4.7
2017-Sep-09 05:27N 40°20' W 073°54'0 0.0
2017-Sep-09 03:33N 40°20' W 073°54'0 0.1
2017-Sep-09 03:27N 40°20' W 073°54'0 0.1
2017-Sep-09 02:57N 40°20' W 073°54'0 0.0
2017-Sep-09 02:27N 40°20' W 073°54'0 0.0
2017-Sep-09 02:00N 40°20' W 073°54'0 0.0
2017-Sep-09 00:21N 40°20' W 073°54'0 0.0
2017-Sep-08 23:06N 40°20' W 073°54'0 0.0
2017-Sep-08 20:03N 40°20' W 073°54'0 0.1
2017-Sep-08 19:57N 40°20' W 073°54'0 0.1
2017-Sep-08 19:24N 40°20' W 073°54'0 0.0
2017-Sep-08 19:00N 40°20' W 073°54'0 0.0
2017-Sep-08 14:15N 40°20' W 073°54'0 0.1
2017-Sep-08 13:51N 40°20' W 073°54'  
Track history (hours):
 
Tides and Currents Weather Stations Pressure Air Temp Water Temp Dewpoint Dewpoint Depression Visibility Wind Speed Wind Dir Waves Ship Positions

Independence

Owner: SEA-Vista Newbuild I LLC, Fort Lauderdale, FL. More information available from US FCC via Universal Licensing System and Coast Guard Vessel Documentation Center.

Last reported at 2017-Sep-18 11:28 UTC. Time now 2017-Sep-21 01:35 UTC.
Position N 24°31' W 081°07'.

Length 186 m; draft 9.1 m.

Type: Tanker. MMSI: 338188000.

Date/timePositionNaut miles runAvg speedWind from/ knotsBaromVisibWave heightAir tempDewpointWater temp
2017-Sep-18 11:28N 24°31' W 081°07'612.5
2017-Sep-18 10:59N 24°33' W 081°01'612.8
2017-Sep-18 10:30N 24°35' W 080°54'612.8
2017-Sep-18 10:00N 24°37' W 080°48'612.5
2017-Sep-18 09:30N 24°40' W 080°41'612.9
2017-Sep-18 09:00N 24°44' W 080°36'714.3
2017-Sep-18 08:30N 24°48' W 080°30'2814.6
2017-Sep-18 06:34N 25°09' W 080°08'214.6
2017-Sep-18 06:24N 25°11' W 080°07'614.1
2017-Sep-18 06:00N 25°16' W 080°04'713.4
2017-Sep-18 05:30N 25°22' W 080°01'613.0
2017-Sep-18 05:01N 25°28' W 079°60'713.0
2017-Sep-18 04:30N 25°35' W 079°59'713.6
2017-Sep-18 04:00N 25°42' W 079°59'713.6
2017-Sep-18 03:30N 25°48' W 079°57'713.3
2017-Sep-18 03:01N 25°55' W 079°59'713.2
2017-Sep-18 02:31N 26°01' W 080°01'611.4
2017-Sep-18 02:00N 26°06' W 080°05'2 3.7
2017-Sep-18 01:31N 26°06' W 080°07'0 0.0
2017-Sep-17 13:08N 26°06' W 080°07'0 0.0
2017-Sep-17 12:59N 26°06' W 080°07'0 0.0
2017-Sep-17 12:29N 26°06' W 080°07'0 0.0
2017-Sep-17 11:59N 26°06' W 080°07'0 0.0
2017-Sep-17 11:29N 26°06' W 080°07'0 0.0
2017-Sep-17 10:59N 26°06' W 080°07'0 0.0
2017-Sep-17 10:29N 26°06' W 080°07'0 0.0
2017-Sep-17 09:59N 26°06' W 080°07'0 0.0
2017-Sep-17 09:29N 26°06' W 080°07'0 0.0
2017-Sep-17 08:56N 26°06' W 080°07'0 0.0
2017-Sep-17 08:29N 26°06' W 080°07'0 0.0
2017-Sep-17 07:59N 26°06' W 080°07'0 0.0
2017-Sep-17 07:29N 26°06' W 080°07'0 0.0
2017-Sep-17 06:59N 26°06' W 080°07'0 0.0
2017-Sep-17 06:29N 26°06' W 080°07'0 0.0
2017-Sep-17 05:59N 26°06' W 080°07'0 0.0
2017-Sep-17 05:29N 26°06' W 080°07'0 0.0
2017-Sep-17 04:59N 26°06' W 080°07'0 0.0
2017-Sep-17 04:29N 26°06' W 080°07'0 0.0
2017-Sep-17 03:59N 26°06' W 080°07'0 0.0
2017-Sep-17 03:29N 26°06' W 080°07'0 0.0
2017-Sep-17 02:59N 26°06' W 080°07'0 0.0
2017-Sep-17 02:29N 26°06' W 080°07'0 0.0
2017-Sep-17 01:59N 26°06' W 080°07'0 0.0
2017-Sep-17 01:26N 26°06' W 080°07'0 0.0
2017-Sep-17 00:59N 26°06' W 080°07'0 0.0
2017-Sep-17 00:29N 26°06' W 080°07'0 0.0
2017-Sep-16 23:59N 26°06' W 080°07'0 0.0
2017-Sep-16 23:29N 26°06' W 080°07'0 0.0
2017-Sep-16 22:59N 26°06' W 080°07'0 0.0
2017-Sep-16 22:29N 26°06' W 080°07'0 0.0
2017-Sep-16 21:59N 26°06' W 080°07'0 0.0
2017-Sep-16 21:29N 26°06' W 080°07'0 0.0
2017-Sep-16 20:59N 26°06' W 080°07'0 0.0
2017-Sep-16 20:29N 26°06' W 080°07'0 0.0
2017-Sep-16 19:59N 26°06' W 080°07'0 0.0
2017-Sep-16 19:29N 26°06' W 080°07'0 0.0
2017-Sep-16 18:59N 26°06' W 080°07'0 0.0
2017-Sep-16 18:29N 26°06' W 080°07'0 0.0
2017-Sep-16 17:59N 26°06' W 080°07'0 0.0
2017-Sep-16 17:29N 26°06' W 080°07'0 0.0
2017-Sep-16 16:59N 26°06' W 080°07'0 0.0
2017-Sep-16 16:29N 26°06' W 080°07'0 0.0
2017-Sep-16 15:59N 26°06' W 080°07'0 0.0
2017-Sep-16 15:29N 26°06' W 080°07'0 0.0
2017-Sep-16 14:59N 26°06' W 080°07'0 0.1
2017-Sep-16 14:31N 26°06' W 080°07'0 0.8
2017-Sep-16 14:00N 26°06' W 080°07'4 8.3
2017-Sep-16 13:31N 26°05' W 080°02'2 4.6
2017-Sep-16 13:00N 26°03' W 080°01'2 4.7
2017-Sep-16 12:30N 26°01' W 079°59'1 2.3
2017-Sep-16 12:01N 26°00' W 079°58'1 1.8
2017-Sep-16 11:30N 26°01' W 079°58'1 1.8
2017-Sep-16 11:00N 26°02' W 079°58'1 1.6
2017-Sep-16 10:30N 26°03' W 079°58'0 0.3
2017-Sep-16 10:00N 26°03' W 079°58'2 4.3
2017-Sep-16 09:30N 26°01' W 079°58'1 2.8
2017-Sep-16 09:00N 26°00' W 079°59'1 1.3
2017-Sep-16 08:30N 26°01' W 079°59'1 1.7
2017-Sep-16 08:00N 26°02' W 079°59'1 1.6
2017-Sep-16 07:30N 26°03' W 079°59'1 1.8
2017-Sep-16 07:00N 26°03' W 079°59'1 2.1
2017-Sep-16 06:31N 26°04' W 079°59'1 2.1
2017-Sep-16 06:01N 26°05' W 079°59'1 2.1
2017-Sep-16 05:30N 26°07' W 079°59'1 2.0
2017-Sep-16 05:01N 26°08' W 079°59'1 2.1
2017-Sep-16 04:31N 26°09' W 079°59'1 1.9
2017-Sep-16 04:01N 26°10' W 079°59'1 3.0
2017-Sep-16 03:31N 26°10' W 079°58'4 7.5
2017-Sep-16 03:00N 26°13' W 079°55'713.3
2017-Sep-16 02:30N 26°19' W 079°53'713.4
2017-Sep-16 02:00N 26°26' W 079°52'713.1
2017-Sep-16 01:30N 26°33' W 079°52'1612.7
2017-Sep-16 00:14N 26°49' W 079°51'312.6
2017-Sep-16 00:00N 26°52' W 079°51'612.4
2017-Sep-15 23:30N 26°58' W 079°53'612.0
2017-Sep-15 23:00N 27°04' W 079°54'  
2017-Sep-13 07:51N 33°60' W 076°30'513.3
2017-Sep-13 07:30N 34°03' W 076°25'713.5
2017-Sep-13 06:58N 34°08' W 076°19'913.3
2017-Sep-13 06:19N 34°14' W 076°12'413.2
2017-Sep-13 06:00N 34°17' W 076°08'713.3
2017-Sep-13 05:30N 34°21' W 076°02'712.7
2017-Sep-13 04:59N 34°27' W 075°57'8911.9
2017-Sep-12 21:30N 35°41' W 074°58'713.6
2017-Sep-12 20:58N 35°48' W 074°56'613.7
2017-Sep-12 20:30N 35°54' W 074°55'713.8
2017-Sep-12 20:00N 36°01' W 074°53'3614.0
2017-Sep-12 17:26N 36°36' W 074°44'613.8
2017-Sep-12 17:00N 36°42' W 074°42'713.8
2017-Sep-12 16:31N 36°49' W 074°40'714.1
2017-Sep-12 16:00N 36°55' W 074°38'913.9
2017-Sep-12 15:22N 37°04' W 074°35'514.3
2017-Sep-12 15:00N 37°09' W 074°34'714.0
2017-Sep-12 14:30N 37°16' W 074°32'714.0
2017-Sep-12 14:00N 37°23' W 074°30'713.8
2017-Sep-12 13:30N 37°29' W 074°28'714.0
2017-Sep-12 13:01N 37°36' W 074°26'714.3
2017-Sep-12 12:31N 37°43' W 074°24'4714.4
2017-Sep-12 09:16N 38°29' W 074°09'414.4
2017-Sep-12 09:01N 38°32' W 074°08'714.4
2017-Sep-12 08:31N 38°39' W 074°07'714.5
2017-Sep-12 08:01N 38°46' W 074°06'714.5
2017-Sep-12 07:30N 38°53' W 074°04'714.5
2017-Sep-12 07:01N 39°00' W 074°02'714.5
2017-Sep-12 06:30N 39°08' W 073°60'714.5
2017-Sep-12 06:01N 39°15' W 073°58'714.3
2017-Sep-12 05:31N 39°22' W 073°56'714.3
2017-Sep-12 05:01N 39°29' W 073°54'714.0
2017-Sep-12 04:30N 39°36' W 073°54'713.9
2017-Sep-12 04:00N 39°43' W 073°52'714.0
2017-Sep-12 03:30N 39°49' W 073°52'714.0
2017-Sep-12 03:01N 39°56' W 073°51'714.0
2017-Sep-12 02:31N 40°03' W 073°51'714.0
2017-Sep-12 02:00N 40°10' W 073°50'713.9
2017-Sep-12 01:29N 40°18' W 073°49'613.4
2017-Sep-12 01:00N 40°24' W 073°49'710.6
2017-Sep-12 00:23N 40°29' W 073°55'410.2
2017-Sep-12 00:00N 40°31' W 073°59'611.4
2017-Sep-11 23:30N 40°36' W 074°03'3 5.9
2017-Sep-11 23:00N 40°39' W 074°03'0 0.2
2017-Sep-11 22:30N 40°39' W 074°03'0 0.1
2017-Sep-11 22:00N 40°39' W 074°03'0 0.1
2017-Sep-11 21:30N 40°39' W 074°03'0 0.0
2017-Sep-11 21:00N 40°39' W 074°03'0 0.1
2017-Sep-11 20:30N 40°39' W 074°03'0 0.2
2017-Sep-11 20:00N 40°39' W 074°03'0 0.0
2017-Sep-11 19:30N 40°39' W 074°03'0 0.3
2017-Sep-11 19:00N 40°39' W 074°03'0 0.1
2017-Sep-11 18:30N 40°39' W 074°03'0 0.1
2017-Sep-11 18:00N 40°39' W 074°03'2 4.6
2017-Sep-11 17:30N 40°39' W 074°06'3 6.9
2017-Sep-11 17:00N 40°39' W 074°10'2 4.7
2017-Sep-11 16:30N 40°37' W 074°12'2 3.6
2017-Sep-11 16:00N 40°35' W 074°13'0 0.1
2017-Sep-11 15:30N 40°35' W 074°13'  
2017-Sep-09 10:27N 40°35' W 074°13'0 0.1
2017-Sep-09 10:00N 40°35' W 074°13'2 3.8
2017-Sep-09 09:30N 40°33' W 074°14'3 4.7
2017-Sep-09 08:58N 40°31' W 074°15'2 4.1
2017-Sep-09 08:30N 40°30' W 074°14'2 4.7
2017-Sep-09 08:00N 40°30' W 074°11'510.9
2017-Sep-09 07:30N 40°29' W 074°04'5 9.2
2017-Sep-09 07:00N 40°28' W 073°58'5 9.1
2017-Sep-09 06:30N 40°25' W 073°54'5 4.7
2017-Sep-09 05:27N 40°20' W 073°54'0 0.0
2017-Sep-09 03:33N 40°20' W 073°54'0 0.1
2017-Sep-09 03:27N 40°20' W 073°54'0 0.1
2017-Sep-09 02:57N 40°20' W 073°54'0 0.0
2017-Sep-09 02:27N 40°20' W 073°54'0 0.0
2017-Sep-09 02:00N 40°20' W 073°54'0 0.0
2017-Sep-09 00:21N 40°20' W 073°54'0 0.0
2017-Sep-08 23:06N 40°20' W 073°54'0 0.0
2017-Sep-08 20:03N 40°20' W 073°54'0 0.1
2017-Sep-08 19:57N 40°20' W 073°54'0 0.1
2017-Sep-08 19:24N 40°20' W 073°54'0 0.0
2017-Sep-08 19:00N 40°20' W 073°54'0 0.0
2017-Sep-08 14:15N 40°20' W 073°54'0 0.1
2017-Sep-08 13:51N 40°20' W 073°54'  

Dump ship's entire track history